createdAt,value
2018-08-17T00:00:43.816Z,22.72
2018-08-17T00:01:43.840Z,22.66
2018-08-17T00:02:43.866Z,22.70
2018-08-17T00:03:43.888Z,22.69
2018-08-17T00:04:43.913Z,22.69
2018-08-17T00:05:43.937Z,22.75
2018-08-17T00:06:43.962Z,22.67
2018-08-17T00:07:43.991Z,22.72
2018-08-17T00:08:44.010Z,22.69
2018-08-17T00:09:44.034Z,22.74
2018-08-17T00:10:44.058Z,22.70
2018-08-17T00:11:44.084Z,22.74
2018-08-17T00:12:44.109Z,22.69
2018-08-17T00:13:44.133Z,22.64
2018-08-17T00:14:44.164Z,22.70
2018-08-17T00:15:44.182Z,22.69
2018-08-17T00:16:44.206Z,22.67
2018-08-17T00:17:44.231Z,22.70
2018-08-17T00:18:44.256Z,22.67
2018-08-17T00:19:44.281Z,22.74
2018-08-17T00:20:44.307Z,22.72
2018-08-17T00:21:44.328Z,22.67
2018-08-17T00:22:44.355Z,22.69
2018-08-17T00:23:44.378Z,22.72
2018-08-17T00:24:44.403Z,22.76
2018-08-17T00:25:44.426Z,22.74
2018-08-17T00:26:44.451Z,22.70
2018-08-17T00:27:44.480Z,22.74
2018-08-17T00:28:44.500Z,22.70
2018-08-17T00:29:44.526Z,22.66
2018-08-17T00:30:44.550Z,22.70
2018-08-17T00:31:44.575Z,22.67
2018-08-17T00:32:44.597Z,22.70
2018-08-17T00:33:44.625Z,22.69
2018-08-17T00:34:44.650Z,22.64
2018-08-17T00:35:44.671Z,22.70
2018-08-17T00:36:44.696Z,22.67
2018-08-17T00:37:44.720Z,22.70
2018-08-17T00:38:44.743Z,22.70
2018-08-17T00:39:44.770Z,22.72
2018-08-17T00:40:44.793Z,22.66
2018-08-17T00:41:44.819Z,22.61
2018-08-17T00:42:44.841Z,22.60
2018-08-17T00:43:44.868Z,22.67
2018-08-17T00:44:44.889Z,22.72
2018-08-17T00:45:44.916Z,22.63
2018-08-17T00:46:44.939Z,22.66
2018-08-17T00:47:44.966Z,22.64
2018-08-17T00:48:44.990Z,22.72
2018-08-17T00:49:45.012Z,22.66
2018-08-17T00:50:45.040Z,22.57
2018-08-17T00:51:45.068Z,22.57
2018-08-17T00:52:45.084Z,22.61
2018-08-17T00:53:45.108Z,22.61
2018-08-17T00:54:45.135Z,22.67
2018-08-17T00:55:45.162Z,22.59
2018-08-17T00:56:45.183Z,22.64
2018-08-17T00:57:45.208Z,22.59
2018-08-17T00:58:45.233Z,22.60
2018-08-17T00:59:45.258Z,22.63
2018-08-17T01:00:45.281Z,22.66
2018-08-17T01:01:45.308Z,22.63
2018-08-17T01:02:45.329Z,22.56
2018-08-17T01:03:45.357Z,22.66
2018-08-17T01:04:45.378Z,22.57
2018-08-17T01:05:45.409Z,22.61
2018-08-17T01:06:45.427Z,22.60
2018-08-17T01:07:45.454Z,22.56
2018-08-17T01:08:45.475Z,22.60
2018-08-17T01:09:45.502Z,22.59
2018-08-17T01:10:45.579Z,22.56
2018-08-17T01:11:45.548Z,22.61
2018-08-17T01:12:45.575Z,22.60
2018-08-17T01:13:45.600Z,22.64
2018-08-17T01:14:45.621Z,22.59
2018-08-17T01:15:45.684Z,22.61
2018-08-17T01:16:45.672Z,22.67
2018-08-17T01:17:45.698Z,22.63
2018-08-17T01:18:45.721Z,22.56
2018-08-17T01:19:45.744Z,22.60
2018-08-17T01:20:45.767Z,22.63
2018-08-17T01:21:45.792Z,22.60
2018-08-17T01:22:45.817Z,22.59
2018-08-17T01:23:45.843Z,22.56
2018-08-17T01:24:45.865Z,22.64
2018-08-17T01:25:45.890Z,22.57
2018-08-17T01:26:45.914Z,22.60
2018-08-17T01:27:45.939Z,22.51
2018-08-17T01:28:45.963Z,22.54
2018-08-17T01:29:45.987Z,22.57
2018-08-17T01:30:46.012Z,22.57
2018-08-17T01:31:46.036Z,22.56
2018-08-17T01:32:46.058Z,22.48
2018-08-17T01:33:46.084Z,22.56
2018-08-17T01:34:46.109Z,22.54
2018-08-17T01:35:46.132Z,22.61
2018-08-17T01:36:46.157Z,22.59
2018-08-17T01:37:46.183Z,22.61
2018-08-17T01:38:46.207Z,22.59
2018-08-17T01:39:46.231Z,22.49
2018-08-17T01:40:46.258Z,22.56
2018-08-17T01:41:46.283Z,22.63
2018-08-17T01:42:46.306Z,22.49
2018-08-17T01:43:46.328Z,22.60
2018-08-17T01:44:46.352Z,22.63
2018-08-17T01:45:46.376Z,22.59
2018-08-17T01:46:46.405Z,22.52
2018-08-17T01:47:46.427Z,22.61
2018-08-17T01:48:46.448Z,22.57
2018-08-17T01:49:46.480Z,22.59
2018-08-17T01:50:46.499Z,22.54
2018-08-17T01:51:46.522Z,22.52
2018-08-17T01:52:46.547Z,22.52
2018-08-17T01:53:46.571Z,22.57
2018-08-17T01:54:46.597Z,22.64
2018-08-17T01:55:46.623Z,22.51
2018-08-17T01:56:46.644Z,22.59
2018-08-17T01:57:46.668Z,22.61
2018-08-17T01:58:46.693Z,22.49
2018-08-17T01:59:46.719Z,22.60
2018-08-17T02:00:46.742Z,22.60
2018-08-17T02:01:46.767Z,22.51
2018-08-17T02:02:46.796Z,22.52
2018-08-17T02:03:46.815Z,22.48
2018-08-17T02:04:46.841Z,22.54
2018-08-17T02:05:46.863Z,22.59
2018-08-17T02:06:46.888Z,22.56
2018-08-17T02:07:46.912Z,22.49
2018-08-17T02:08:46.938Z,22.49
2018-08-17T02:09:46.960Z,22.57
2018-08-17T02:10:46.984Z,22.49
2018-08-17T02:11:47.013Z,22.59
2018-08-17T02:12:47.030Z,22.52
2018-08-17T02:13:47.057Z,22.52
2018-08-17T02:14:47.219Z,22.54
2018-08-17T02:15:47.107Z,22.56
2018-08-17T02:16:47.131Z,22.56
2018-08-17T02:17:47.154Z,22.57
2018-08-17T02:18:47.178Z,22.49
2018-08-17T02:19:47.203Z,22.54
2018-08-17T02:20:47.227Z,22.59
2018-08-17T02:21:47.250Z,22.54
2018-08-17T02:22:47.278Z,22.48
2018-08-17T02:23:47.300Z,22.46
2018-08-17T02:24:47.325Z,22.54
2018-08-17T02:25:47.347Z,22.52
2018-08-17T02:26:47.372Z,22.49
2018-08-17T02:27:47.400Z,22.48
2018-08-17T02:28:47.419Z,22.46
2018-08-17T02:29:47.448Z,22.46
2018-08-17T02:30:47.475Z,22.52
2018-08-17T02:31:47.495Z,22.45
2018-08-17T02:32:47.517Z,22.44
2018-08-17T02:33:47.545Z,22.46
2018-08-17T02:34:47.569Z,22.46
2018-08-17T02:35:47.591Z,22.54
2018-08-17T02:36:47.616Z,22.44
2018-08-17T02:37:47.640Z,22.41
2018-08-17T02:38:47.664Z,22.49
2018-08-17T02:39:47.688Z,22.54
2018-08-17T02:40:47.710Z,22.45
2018-08-17T02:41:47.736Z,22.42
2018-08-17T02:42:47.762Z,22.41
2018-08-17T02:43:47.787Z,22.45
2018-08-17T02:44:47.810Z,22.46
2018-08-17T02:45:47.834Z,22.45
2018-08-17T02:46:47.857Z,22.38
2018-08-17T02:47:47.882Z,22.42
2018-08-17T02:48:47.906Z,22.48
2018-08-17T02:49:47.931Z,22.45
2018-08-17T02:50:47.957Z,22.45
2018-08-17T02:51:47.980Z,22.45
2018-08-17T02:52:48.002Z,22.46
2018-08-17T02:53:48.027Z,22.38
2018-08-17T02:54:48.051Z,22.42
2018-08-17T02:55:48.078Z,22.41
2018-08-17T02:56:48.105Z,22.44
2018-08-17T02:57:48.123Z,22.44
2018-08-17T02:58:48.148Z,22.45
2018-08-17T02:59:48.180Z,22.46
2018-08-17T03:00:48.195Z,22.36
2018-08-17T03:01:48.221Z,22.46
2018-08-17T03:02:48.248Z,22.38
2018-08-17T03:03:48.269Z,22.42
2018-08-17T03:04:48.293Z,22.31
2018-08-17T03:05:48.322Z,22.39
2018-08-17T03:06:48.342Z,22.44
2018-08-17T03:07:48.368Z,22.44
2018-08-17T03:08:48.390Z,22.26
2018-08-17T03:09:48.416Z,22.29
2018-08-17T03:10:48.439Z,22.33
2018-08-17T03:11:48.465Z,22.20
2018-08-17T03:12:48.488Z,22.21
2018-08-17T03:13:48.512Z,22.30
2018-08-17T03:14:48.537Z,22.26
2018-08-17T03:15:48.561Z,22.24
2018-08-17T03:16:48.584Z,22.29
2018-08-17T03:17:48.609Z,22.21
2018-08-17T03:18:48.636Z,22.21
2018-08-17T03:19:48.658Z,22.23
2018-08-17T03:20:48.680Z,22.23
2018-08-17T03:21:48.704Z,22.23
2018-08-17T03:22:48.728Z,22.19
2018-08-17T03:23:48.755Z,22.14
2018-08-17T03:24:48.780Z,22.24
2018-08-17T03:25:48.799Z,22.15
2018-08-17T03:26:48.827Z,22.12
2018-08-17T03:27:48.850Z,22.11
2018-08-17T03:28:48.873Z,22.11
2018-08-17T03:29:48.900Z,22.11
2018-08-17T03:30:48.922Z,22.21
2018-08-17T03:31:48.947Z,22.09
2018-08-17T03:32:48.969Z,22.04
2018-08-17T03:33:48.993Z,22.09
2018-08-17T03:34:49.019Z,22.05
2018-08-17T03:35:49.043Z,22.05
2018-08-17T03:36:49.072Z,22.08
2018-08-17T03:37:49.089Z,22.05
2018-08-17T03:38:49.115Z,22.05
2018-08-17T03:39:49.140Z,22.05
2018-08-17T03:40:49.162Z,22.06
2018-08-17T03:41:49.186Z,22.06
2018-08-17T03:42:49.212Z,22.08
2018-08-17T03:43:49.236Z,22.15
2018-08-17T03:44:49.258Z,22.02
2018-08-17T03:45:49.282Z,22.05
2018-08-17T03:46:49.309Z,22.04
2018-08-17T03:47:49.329Z,22.06
2018-08-17T03:48:49.354Z,22.01
2018-08-17T03:49:49.382Z,22.02
2018-08-17T03:50:49.402Z,22.04
2018-08-17T03:51:49.433Z,21.99
2018-08-17T03:52:49.451Z,21.99
2018-08-17T03:53:49.473Z,22.01
2018-08-17T03:54:49.499Z,21.99
2018-08-17T03:55:49.522Z,22.02
2018-08-17T03:56:49.546Z,22.02
2018-08-17T03:57:49.569Z,22.06
2018-08-17T03:58:49.597Z,22.11
2018-08-17T03:59:49.618Z,22.01
2018-08-17T04:00:49.642Z,22.05
2018-08-17T04:01:49.666Z,22.04
2018-08-17T04:02:49.690Z,22.04
2018-08-17T04:03:49.714Z,22.02
2018-08-17T04:04:49.738Z,22.01
2018-08-17T04:05:49.765Z,21.98
2018-08-17T04:06:49.791Z,22.01
2018-08-17T04:07:49.813Z,22.02
2018-08-17T04:08:49.833Z,22.04
2018-08-17T04:09:49.866Z,22.05
2018-08-17T04:10:49.885Z,22.01
2018-08-17T04:11:49.908Z,22.05
2018-08-17T04:12:49.937Z,22.06
2018-08-17T04:13:49.957Z,22.01
2018-08-17T04:14:49.977Z,22.05
2018-08-17T04:15:50.003Z,22.05
2018-08-17T04:16:50.026Z,22.05
2018-08-17T04:17:50.050Z,22.02
2018-08-17T04:18:50.074Z,22.01
2018-08-17T04:19:50.100Z,22.04
2018-08-17T04:20:50.120Z,22.04
2018-08-17T04:21:50.145Z,22.06
2018-08-17T04:22:50.170Z,22.05
2018-08-17T04:23:50.235Z,22.08
2018-08-17T04:24:50.218Z,22.06
2018-08-17T04:25:50.245Z,22.06
2018-08-17T04:26:50.266Z,22.01
2018-08-17T04:27:50.295Z,22.12
2018-08-17T04:28:50.313Z,22.12
2018-08-17T04:29:50.336Z,22.08
2018-08-17T04:30:50.361Z,22.15
2018-08-17T04:31:50.389Z,22.21
2018-08-17T04:32:50.410Z,22.17
2018-08-17T04:33:50.433Z,22.20
2018-08-17T04:34:50.455Z,22.21
2018-08-17T04:35:50.482Z,22.19
2018-08-17T04:36:50.504Z,22.23
2018-08-17T04:37:50.529Z,22.21
2018-08-17T04:38:50.557Z,22.19
2018-08-17T04:39:50.582Z,22.29
2018-08-17T04:40:50.603Z,22.29
2018-08-17T04:41:50.624Z,22.23
2018-08-17T04:42:50.651Z,22.38
2018-08-17T04:43:50.799Z,22.30
2018-08-17T04:44:50.696Z,22.41
2018-08-17T04:45:50.722Z,22.30
2018-08-17T04:46:50.745Z,22.45
2018-08-17T04:47:50.769Z,22.45
2018-08-17T04:48:50.792Z,22.51
2018-08-17T04:49:50.822Z,22.44
2018-08-17T04:50:50.843Z,22.57
2018-08-17T04:51:50.873Z,22.51
2018-08-17T04:52:50.891Z,22.60
2018-08-17T04:53:50.916Z,22.57
2018-08-17T04:54:50.937Z,22.63
2018-08-17T04:55:50.962Z,22.74
2018-08-17T04:56:50.989Z,22.74
2018-08-17T04:57:51.012Z,22.70
2018-08-17T04:58:51.034Z,22.74
2018-08-17T04:59:51.061Z,22.82
2018-08-17T05:00:51.082Z,22.84
2018-08-17T05:01:51.107Z,22.82
2018-08-17T05:02:51.132Z,22.91
2018-08-17T05:03:51.156Z,22.93
2018-08-17T05:04:51.179Z,22.89
2018-08-17T05:05:51.204Z,22.82
2018-08-17T05:06:51.230Z,22.97
2018-08-17T05:07:51.253Z,22.94
2018-08-17T05:08:51.289Z,22.96
2018-08-17T05:09:51.304Z,23.14
2018-08-17T05:10:51.326Z,23.25
2018-08-17T05:11:51.350Z,23.22
2018-08-17T05:12:51.373Z,23.21
2018-08-17T05:13:51.398Z,23.15
2018-08-17T05:14:51.422Z,23.16
2018-08-17T05:15:51.447Z,23.01
2018-08-17T05:16:51.471Z,23.06
2018-08-17T05:17:51.499Z,22.96
2018-08-17T05:18:51.520Z,22.99
2018-08-17T05:19:51.545Z,23.04
2018-08-17T05:20:51.570Z,23.00
2018-08-17T05:21:51.595Z,22.99
2018-08-17T05:22:51.618Z,23.06
2018-08-17T05:23:51.642Z,23.06
2018-08-17T05:24:51.670Z,23.01
2018-08-17T05:25:51.691Z,23.03
2018-08-17T05:26:51.716Z,22.97
2018-08-17T05:27:51.745Z,22.96
2018-08-17T05:28:51.763Z,22.91
2018-08-17T05:29:51.789Z,23.00
2018-08-17T05:30:51.813Z,22.97
2018-08-17T05:31:51.838Z,23.04
2018-08-17T05:32:51.861Z,23.04
2018-08-17T05:33:51.886Z,23.00
2018-08-17T05:34:51.912Z,23.06
2018-08-17T05:35:51.955Z,23.11
2018-08-17T05:36:51.959Z,23.57
2018-08-17T05:37:51.984Z,23.56
2018-08-17T05:38:52.010Z,23.53
2018-08-17T05:39:52.040Z,23.42
2018-08-17T05:40:52.058Z,23.37
2018-08-17T05:41:52.081Z,23.49
2018-08-17T05:42:52.107Z,23.50
2018-08-17T05:43:52.132Z,23.47
2018-08-17T05:44:52.156Z,23.45
2018-08-17T05:45:52.181Z,23.44
2018-08-17T05:46:52.208Z,23.38
2018-08-17T05:47:52.231Z,23.42
2018-08-17T05:48:52.254Z,23.45
2018-08-17T05:49:52.279Z,23.60
2018-08-17T05:50:52.304Z,23.62
2018-08-17T05:51:52.332Z,23.64
2018-08-17T05:52:52.358Z,23.68
2018-08-17T05:53:52.378Z,23.64
2018-08-17T05:54:52.402Z,23.64
2018-08-17T05:55:52.428Z,23.72
2018-08-17T05:56:52.451Z,23.74
2018-08-17T05:57:52.476Z,23.68
2018-08-17T05:58:52.501Z,23.72
2018-08-17T05:59:52.530Z,23.71
2018-08-17T06:00:52.550Z,23.56
2018-08-17T06:01:52.579Z,23.62
2018-08-17T06:02:52.675Z,23.49
2018-08-17T06:03:52.624Z,23.45
2018-08-17T06:04:52.650Z,23.42
2018-08-17T06:05:52.675Z,23.52
2018-08-17T06:06:52.699Z,23.38
2018-08-17T06:07:52.725Z,23.39
2018-08-17T06:08:52.751Z,23.37
2018-08-17T06:09:52.778Z,23.42
2018-08-17T06:10:52.847Z,23.41
2018-08-17T06:11:52.823Z,23.38
2018-08-17T06:12:52.847Z,23.39
2018-08-17T06:13:52.880Z,23.45
2018-08-17T06:14:52.897Z,23.41
2018-08-17T06:15:52.922Z,23.42
2018-08-17T06:16:52.947Z,23.44
2018-08-17T06:17:52.972Z,23.38
2018-08-17T06:18:52.997Z,23.37
2018-08-17T06:19:53.020Z,23.29
2018-08-17T06:20:53.045Z,23.35
2018-08-17T06:21:53.071Z,23.29
2018-08-17T06:22:53.097Z,23.22
2018-08-17T06:23:53.120Z,23.23
2018-08-17T06:24:53.144Z,23.21
2018-08-17T06:25:53.168Z,23.15
2018-08-17T06:26:53.197Z,23.26
2018-08-17T06:27:53.222Z,23.21
2018-08-17T06:28:53.243Z,23.21
2018-08-17T06:29:53.268Z,23.15
2018-08-17T06:30:53.294Z,23.15
2018-08-17T06:31:53.313Z,23.14
2018-08-17T06:32:53.347Z,23.21
2018-08-17T06:33:53.369Z,23.19
2018-08-17T06:34:53.391Z,23.19
2018-08-17T06:35:53.419Z,23.04
2018-08-17T06:36:53.439Z,23.11
2018-08-17T06:37:53.475Z,23.15
2018-08-17T06:38:53.492Z,23.06
2018-08-17T06:39:53.516Z,23.11
2018-08-17T06:40:53.538Z,23.19
2018-08-17T06:41:53.567Z,23.11
2018-08-17T06:42:53.589Z,23.14
2018-08-17T06:43:53.617Z,23.11
2018-08-17T06:44:53.641Z,23.12
2018-08-17T06:45:53.663Z,23.04
2018-08-17T06:46:53.696Z,23.11
2018-08-17T06:47:53.711Z,23.04
2018-08-17T06:48:53.734Z,23.06
2018-08-17T06:49:53.766Z,23.01
2018-08-17T06:50:53.863Z,23.16
2018-08-17T06:51:53.811Z,23.06
2018-08-17T06:52:53.833Z,23.01
2018-08-17T06:53:53.861Z,23.04
2018-08-17T06:54:53.884Z,23.07
2018-08-17T06:55:53.913Z,22.99
2018-08-17T06:56:53.936Z,23.04
2018-08-17T06:57:53.958Z,23.01
2018-08-17T06:58:53.983Z,23.03
2018-08-17T06:59:54.010Z,23.19
2018-08-17T07:00:54.033Z,23.18
2018-08-17T07:01:54.058Z,23.21
2018-08-17T07:02:54.080Z,23.15
2018-08-17T07:03:54.103Z,23.11
2018-08-17T07:04:54.128Z,23.22
2018-08-17T07:05:54.155Z,23.25
2018-08-17T07:06:54.180Z,23.25
2018-08-17T07:07:54.206Z,23.31
2018-08-17T07:08:54.346Z,23.22
2018-08-17T07:09:54.253Z,23.32
2018-08-17T07:10:54.276Z,23.35
2018-08-17T07:11:54.302Z,23.34
2018-08-17T07:12:54.328Z,23.37
2018-08-17T07:13:54.353Z,23.35
2018-08-17T07:14:54.380Z,23.41
2018-08-17T07:15:54.431Z,23.38
2018-08-17T07:16:54.430Z,23.42
2018-08-17T07:17:55.431Z,23.39
2018-08-17T07:18:54.476Z,23.41
2018-08-17T07:19:54.502Z,23.41
2018-08-17T07:20:54.530Z,23.42
2018-08-17T07:21:54.550Z,23.41
2018-08-17T07:22:54.576Z,23.49
2018-08-17T07:23:54.601Z,23.42
2018-08-17T07:24:54.624Z,23.54
2018-08-17T07:25:54.652Z,23.42
2018-08-17T07:26:54.688Z,23.45
2018-08-17T07:27:54.811Z,23.53
2018-08-17T07:28:54.726Z,23.44
2018-08-17T07:29:54.749Z,23.41
2018-08-17T07:30:54.793Z,23.42
2018-08-17T07:31:54.799Z,23.45
2018-08-17T07:32:54.823Z,23.41
2018-08-17T07:33:54.847Z,23.39
2018-08-17T07:34:54.870Z,23.37
2018-08-17T07:35:55.030Z,23.26
2018-08-17T07:36:54.922Z,23.38
2018-08-17T07:37:54.948Z,23.26
2018-08-17T07:38:54.971Z,23.23
2018-08-17T07:39:55.003Z,23.29
2018-08-17T07:40:55.018Z,23.31
2018-08-17T07:41:55.045Z,23.21
2018-08-17T07:42:55.075Z,23.18
2018-08-17T07:43:55.095Z,23.16
2018-08-17T07:44:55.122Z,23.21
2018-08-17T07:45:55.147Z,23.15
2018-08-17T07:46:55.175Z,23.16
2018-08-17T07:47:55.267Z,23.23
2018-08-17T07:48:55.216Z,23.14
2018-08-17T07:49:55.242Z,23.07
2018-08-17T07:50:55.268Z,23.00
2018-08-17T07:51:55.290Z,23.04
2018-08-17T07:52:55.317Z,22.99
2018-08-17T07:53:55.341Z,23.07
2018-08-17T07:54:55.386Z,23.04
2018-08-17T07:55:55.393Z,23.04
2018-08-17T07:56:55.415Z,22.96
2018-08-17T07:57:55.441Z,22.97
2018-08-17T07:58:55.509Z,23.00
2018-08-17T07:59:55.489Z,22.97
2018-08-17T08:00:55.518Z,23.01
2018-08-17T08:01:55.543Z,22.99
2018-08-17T08:02:55.566Z,23.00
2018-08-17T08:03:55.586Z,22.99
2018-08-17T08:04:55.612Z,22.94
2018-08-17T08:05:55.640Z,23.00
2018-08-17T08:06:55.664Z,23.00
2018-08-17T08:07:55.692Z,23.00
2018-08-17T08:08:55.711Z,23.00
2018-08-17T08:09:55.745Z,22.97
2018-08-17T08:10:55.762Z,22.96
2018-08-17T08:11:55.790Z,22.93
2018-08-17T08:12:55.808Z,22.99
2018-08-17T08:13:55.834Z,22.94
2018-08-17T08:14:55.859Z,23.00
2018-08-17T08:15:55.884Z,22.96
2018-08-17T08:16:55.936Z,23.00
2018-08-17T08:17:55.933Z,23.03
2018-08-17T08:18:55.956Z,23.06
2018-08-17T08:19:55.982Z,23.03
2018-08-17T08:20:56.007Z,22.99
2018-08-17T08:21:56.033Z,22.96
2018-08-17T08:22:56.057Z,22.99
2018-08-17T08:23:56.079Z,23.03
2018-08-17T08:24:56.103Z,23.00
2018-08-17T08:25:56.135Z,22.94
2018-08-17T08:26:56.153Z,22.97
2018-08-17T08:27:56.178Z,23.00
2018-08-17T08:28:56.198Z,23.03
2018-08-17T08:29:56.225Z,22.93
2018-08-17T08:30:56.254Z,22.93
2018-08-17T08:31:56.280Z,22.99
2018-08-17T08:32:56.299Z,22.93
2018-08-17T08:33:56.327Z,22.88
2018-08-17T08:34:56.351Z,22.81
2018-08-17T08:35:56.376Z,22.93
2018-08-17T08:36:56.400Z,22.81
2018-08-17T08:37:56.428Z,22.84
2018-08-17T08:38:56.448Z,22.79
2018-08-17T08:39:56.610Z,22.84
2018-08-17T08:40:56.496Z,22.84
2018-08-17T08:41:56.520Z,22.85
2018-08-17T08:42:56.545Z,22.81
2018-08-17T08:43:56.570Z,22.78
2018-08-17T08:44:56.595Z,22.78
2018-08-17T08:45:56.695Z,22.70
2018-08-17T08:46:56.644Z,22.69
2018-08-17T08:47:56.667Z,22.64
2018-08-17T08:48:56.695Z,22.70
2018-08-17T08:49:56.715Z,22.75
2018-08-17T08:50:56.740Z,22.70
2018-08-17T08:51:56.775Z,22.69
2018-08-17T08:52:56.790Z,22.70
2018-08-17T08:53:56.808Z,22.69
2018-08-17T08:54:56.838Z,22.70
2018-08-17T08:55:56.941Z,22.67
2018-08-17T08:56:56.888Z,22.70
2018-08-17T08:57:56.920Z,22.60
2018-08-17T08:58:56.937Z,22.69
2018-08-17T08:59:56.960Z,22.66
2018-08-17T09:00:56.984Z,22.64
2018-08-17T09:01:57.012Z,22.63
2018-08-17T09:02:57.039Z,22.60
2018-08-17T09:03:57.058Z,22.60
2018-08-17T09:04:57.080Z,22.66
2018-08-17T09:05:57.105Z,22.72
2018-08-17T09:06:57.131Z,22.66
2018-08-17T09:07:57.176Z,22.59
2018-08-17T09:08:57.187Z,22.61
2018-08-17T09:09:57.204Z,22.57
2018-08-17T09:10:57.227Z,22.57
2018-08-17T09:11:57.252Z,22.61
2018-08-17T09:12:57.276Z,22.61
2018-08-17T09:13:57.301Z,22.59
2018-08-17T09:14:57.324Z,22.64
2018-08-17T09:15:57.353Z,22.66
2018-08-17T09:16:57.376Z,22.57
2018-08-17T09:17:57.399Z,22.60
2018-08-17T09:18:57.421Z,22.51
2018-08-17T09:19:57.447Z,22.64
2018-08-17T09:20:57.469Z,22.54
2018-08-17T09:21:57.497Z,22.60
2018-08-17T09:22:57.528Z,22.63
2018-08-17T09:23:57.543Z,22.52
2018-08-17T09:24:57.568Z,22.60
2018-08-17T09:25:57.592Z,22.67
2018-08-17T09:26:57.614Z,22.61
2018-08-17T09:27:57.639Z,22.57
2018-08-17T09:28:57.664Z,22.61
2018-08-17T09:29:57.703Z,22.57
2018-08-17T09:30:57.719Z,22.64
2018-08-17T09:31:57.738Z,22.64
2018-08-17T09:32:57.762Z,22.60
2018-08-17T09:33:57.785Z,22.59
2018-08-17T09:34:57.812Z,22.57
2018-08-17T09:35:57.859Z,22.61
2018-08-17T09:36:57.857Z,22.61
2018-08-17T09:37:57.883Z,22.56
2018-08-17T09:38:57.910Z,22.59
2018-08-17T09:39:57.931Z,22.64
2018-08-17T09:40:57.955Z,22.67
2018-08-17T09:41:57.995Z,22.60
2018-08-17T09:42:58.004Z,22.67
2018-08-17T09:43:58.035Z,22.67
2018-08-17T09:44:58.051Z,22.67
2018-08-17T09:45:58.077Z,22.72
2018-08-17T09:46:58.101Z,22.70
2018-08-17T09:47:58.135Z,22.67
2018-08-17T09:48:58.149Z,22.84
2018-08-17T09:49:58.176Z,22.78
2018-08-17T09:50:58.198Z,22.79
2018-08-17T09:51:58.225Z,22.82
2018-08-17T09:52:58.248Z,22.81
2018-08-17T09:53:58.274Z,22.86
2018-08-17T09:54:58.300Z,22.84
2018-08-17T09:55:58.323Z,22.94
2018-08-17T09:56:58.347Z,22.93
2018-08-17T09:57:58.374Z,22.94
2018-08-17T09:58:58.396Z,22.97
2018-08-17T09:59:58.426Z,22.93
2018-08-17T10:00:58.461Z,22.97
2018-08-17T10:01:58.471Z,22.99
2018-08-17T10:02:58.491Z,22.96
2018-08-17T10:03:58.574Z,22.96
2018-08-17T10:04:58.543Z,22.94
2018-08-17T10:05:58.568Z,23.01
2018-08-17T10:06:58.603Z,23.06
2018-08-17T10:07:58.615Z,23.01
2018-08-17T10:08:58.649Z,22.99
2018-08-17T10:09:58.668Z,23.07
2018-08-17T10:10:58.690Z,23.03
2018-08-17T10:11:58.720Z,23.00
2018-08-17T10:12:58.739Z,23.07
2018-08-17T10:13:58.764Z,23.07
2018-08-17T10:14:58.804Z,23.16
2018-08-17T10:15:58.810Z,23.18
2018-08-17T10:16:58.835Z,23.21
2018-08-17T10:17:58.878Z,23.15
2018-08-17T10:18:58.882Z,23.15
2018-08-17T10:19:58.941Z,23.15
2018-08-17T10:20:58.970Z,23.22
2018-08-17T10:21:59.117Z,23.19
2018-08-17T10:22:59.008Z,23.22
2018-08-17T10:23:59.020Z,23.23
2018-08-17T10:25:00.005Z,23.25
2018-08-17T10:25:59.082Z,23.23
2018-08-17T10:26:59.084Z,23.22
2018-08-17T10:27:59.106Z,23.26
2018-08-17T10:28:59.152Z,23.23
2018-08-17T10:29:59.159Z,23.19
2018-08-17T10:31:00.175Z,23.19
2018-08-17T10:31:59.228Z,23.14
2018-08-17T10:32:59.229Z,23.16
2018-08-17T10:33:59.311Z,23.21
2018-08-17T10:34:59.292Z,23.12
2018-08-17T10:35:59.302Z,23.21
2018-08-17T10:36:59.356Z,23.25
2018-08-17T10:37:59.366Z,23.23
2018-08-17T10:38:59.377Z,23.18
2018-08-17T10:39:59.427Z,23.18
2018-08-17T10:40:59.426Z,23.19
2018-08-17T10:41:59.447Z,23.32
2018-08-17T10:42:59.471Z,23.21
2018-08-17T10:43:59.511Z,23.41
2018-08-17T10:44:59.569Z,23.45
2018-08-17T10:45:59.547Z,23.50
2018-08-17T10:46:59.579Z,23.57
2018-08-17T10:47:59.598Z,23.59
2018-08-17T10:48:59.693Z,23.67
2018-08-17T10:49:59.644Z,23.72
2018-08-17T10:50:59.672Z,23.71
2018-08-17T10:51:59.695Z,23.67
2018-08-17T10:52:59.720Z,23.79
2018-08-17T10:53:59.746Z,23.86
2018-08-17T10:54:59.771Z,23.79
2018-08-17T10:55:59.794Z,23.89
2018-08-17T10:56:59.820Z,23.93
2018-08-17T10:57:59.850Z,23.94
2018-08-17T10:58:59.874Z,23.93
2018-08-17T10:59:59.895Z,24.00
2018-08-17T11:00:59.919Z,24.04
2018-08-17T11:01:59.944Z,24.04
2018-08-17T11:02:59.968Z,24.16
2018-08-17T11:04:00.001Z,24.16
2018-08-17T11:05:00.020Z,24.14
2018-08-17T11:06:00.046Z,24.05
2018-08-17T11:07:00.073Z,24.04
2018-08-17T11:08:00.097Z,24.05
2018-08-17T11:09:00.119Z,24.02
2018-08-17T11:10:00.143Z,24.06
2018-08-17T11:11:00.200Z,24.04
2018-08-17T11:12:00.196Z,24.05
2018-08-17T11:13:00.219Z,24.06
2018-08-17T11:14:00.243Z,24.02
2018-08-17T11:15:00.271Z,24.06
2018-08-17T11:16:00.297Z,24.09
2018-08-17T11:17:00.380Z,24.14
2018-08-17T11:18:00.355Z,24.16
2018-08-17T11:19:00.369Z,24.11
2018-08-17T11:20:00.392Z,24.26
2018-08-17T11:21:00.421Z,24.29
2018-08-17T11:22:00.443Z,24.23
2018-08-17T11:23:00.536Z,24.30
2018-08-17T11:24:00.493Z,24.27
2018-08-17T11:25:00.521Z,24.34
2018-08-17T11:26:00.546Z,24.31
2018-08-17T11:27:00.573Z,24.31
2018-08-17T11:28:00.601Z,24.36
2018-08-17T11:29:00.617Z,24.30
2018-08-17T11:30:00.646Z,24.45
2018-08-17T11:31:00.671Z,24.49
2018-08-17T11:32:00.694Z,24.41
2018-08-17T11:33:00.724Z,24.44
2018-08-17T11:34:00.746Z,24.46
2018-08-17T11:35:00.773Z,24.45
2018-08-17T11:36:00.796Z,24.48
2018-08-17T11:37:00.824Z,24.48
2018-08-17T11:38:00.846Z,24.53
2018-08-17T11:39:00.870Z,24.55
2018-08-17T11:40:00.895Z,24.52
2018-08-17T11:41:00.920Z,24.52
2018-08-17T11:42:00.945Z,24.42
2018-08-17T11:43:00.985Z,24.46
2018-08-17T11:44:00.998Z,24.46
2018-08-17T11:45:01.025Z,24.45
2018-08-17T11:46:01.049Z,24.39
2018-08-17T11:47:01.083Z,24.39
2018-08-17T11:48:01.109Z,24.42
2018-08-17T11:49:01.129Z,24.42
2018-08-17T11:50:01.156Z,24.37
2018-08-17T11:51:01.183Z,24.44
2018-08-17T11:52:01.205Z,24.39
2018-08-17T11:53:01.228Z,24.41
2018-08-17T11:54:01.380Z,24.41
2018-08-17T11:55:01.279Z,24.44
2018-08-17T11:56:01.306Z,24.41
2018-08-17T11:57:01.328Z,24.42
2018-08-17T11:58:01.423Z,24.44
2018-08-17T11:59:01.382Z,24.39
2018-08-17T12:00:01.402Z,24.49
2018-08-17T12:01:01.464Z,24.45
2018-08-17T12:02:01.593Z,24.46
2018-08-17T12:03:01.486Z,24.44
2018-08-17T12:04:01.510Z,24.42
2018-08-17T12:05:01.544Z,24.39
2018-08-17T12:06:01.563Z,24.49
2018-08-17T12:07:01.589Z,24.39
2018-08-17T12:08:01.630Z,24.41
2018-08-17T12:09:01.642Z,24.49
2018-08-17T12:10:01.662Z,24.34
2018-08-17T12:11:01.692Z,24.36
2018-08-17T12:12:01.715Z,24.33
2018-08-17T12:13:01.735Z,24.29
2018-08-17T12:14:01.768Z,24.30
2018-08-17T12:15:01.783Z,24.29
2018-08-17T12:16:01.816Z,24.33
2018-08-17T12:17:01.837Z,24.34
2018-08-17T12:18:01.863Z,24.26
2018-08-17T12:19:01.891Z,24.26
2018-08-17T12:20:01.917Z,24.27
2018-08-17T12:21:01.986Z,24.16
2018-08-17T12:22:01.977Z,24.19
2018-08-17T12:23:01.992Z,24.09
2018-08-17T12:24:02.020Z,24.23
2018-08-17T12:25:02.096Z,24.14
2018-08-17T12:26:02.069Z,24.12
2018-08-17T12:27:02.092Z,24.04
2018-08-17T12:28:02.118Z,24.06
2018-08-17T12:29:02.146Z,24.09
2018-08-17T12:30:02.192Z,24.11
2018-08-17T12:31:02.195Z,24.12
2018-08-17T12:32:02.264Z,24.08
2018-08-17T12:33:02.244Z,24.09
2018-08-17T12:34:02.290Z,24.08
2018-08-17T12:35:02.294Z,24.12
2018-08-17T12:36:02.326Z,24.06
2018-08-17T12:37:02.347Z,24.11
2018-08-17T12:38:02.367Z,24.02
2018-08-17T12:39:02.397Z,24.12
2018-08-17T12:40:02.469Z,24.06
2018-08-17T12:41:02.445Z,24.06
2018-08-17T12:42:02.471Z,24.00
2018-08-17T12:43:02.512Z,23.99
2018-08-17T12:44:02.526Z,23.97
2018-08-17T12:45:02.548Z,23.97
2018-08-17T12:46:02.572Z,23.96
2018-08-17T12:47:02.597Z,24.02
2018-08-17T12:48:02.622Z,23.96
2018-08-17T12:49:02.644Z,23.99
2018-08-17T12:50:02.681Z,23.96
2018-08-17T12:51:02.701Z,23.97
2018-08-17T12:52:02.726Z,23.97
2018-08-17T12:53:02.756Z,23.99